createdAt,value
2023-01-26T00:03:30.922Z,23.77
2023-01-26T00:08:37.699Z,20.10
2023-01-26T00:13:39.645Z,23.27
2023-01-26T00:18:42.169Z,23.33
2023-01-26T00:23:44.347Z,23.15
2023-01-26T00:28:54.986Z,22.75
2023-01-26T00:34:00.023Z,22.02
2023-01-26T00:39:02.776Z,16.30
2023-01-26T00:44:04.524Z,18.58
2023-01-26T00:49:09.293Z,28.10
2023-01-26T00:54:10.803Z,20.65
2023-01-26T00:59:12.431Z,20.25
2023-01-26T01:04:17.045Z,23.13
2023-01-26T01:09:18.862Z,22.80
2023-01-26T01:14:20.326Z,16.77
2023-01-26T01:19:21.856Z,20.95
2023-01-26T01:24:23.337Z,20.55
2023-01-26T01:29:25.275Z,19.98
2023-01-26T01:34:26.769Z,19.45
2023-01-26T01:39:28.205Z,15.05
2023-01-26T01:44:29.713Z,15.85
2023-01-26T01:49:43.897Z,14.40
2023-01-26T01:54:53.191Z,15.65
2023-01-26T02:00:22.354Z,14.10
2023-01-26T02:05:31.471Z,14.65
2023-01-26T02:10:33.157Z,8.65
2023-01-26T02:15:34.693Z,6.47
2023-01-26T02:20:45.251Z,8.48
2023-01-26T02:25:49.545Z,6.13
2023-01-26T02:30:53.033Z,8.60
2023-01-26T02:35:54.474Z,4.47
2023-01-26T02:41:00.271Z,8.02
2023-01-26T02:46:01.913Z,7.22
2023-01-26T02:51:04.391Z,7.38
2023-01-26T02:56:06.238Z,4.45
2023-01-26T03:01:07.906Z,5.45
2023-01-26T03:06:13.679Z,5.03
2023-01-26T03:11:15.139Z,4.35
2023-01-26T03:16:18.528Z,5.05
2023-01-26T03:21:38.577Z,5.55
2023-01-26T03:26:59.103Z,4.10
2023-01-26T03:32:01.436Z,6.38
2023-01-26T03:37:03.715Z,3.17
2023-01-26T03:42:25.255Z,6.57
2023-01-26T03:47:45.245Z,6.72
2023-01-26T03:53:05.143Z,5.82
2023-01-26T03:58:08.511Z,4.70
2023-01-26T04:03:28.566Z,4.35
2023-01-26T04:08:30.440Z,6.03
2023-01-26T04:13:50.314Z,7.03
2023-01-26T04:19:12.754Z,6.00
2023-01-26T04:24:16.695Z,8.35
2023-01-26T04:29:18.575Z,8.00
2023-01-26T04:34:20.132Z,13.80
2023-01-26T04:39:21.595Z,7.15
2023-01-26T04:44:23.066Z,9.10
2023-01-26T04:49:24.591Z,9.63
2023-01-26T04:54:26.284Z,6.75
2023-01-26T04:59:27.900Z,6.70
2023-01-26T05:04:29.372Z,6.35
2023-01-26T05:09:30.905Z,4.60
2023-01-26T05:14:32.373Z,7.18
2023-01-26T05:19:33.821Z,9.32
2023-01-26T05:24:35.229Z,13.25
2023-01-26T05:29:36.698Z,7.75
2023-01-26T05:34:38.232Z,10.13
2023-01-26T05:39:39.563Z,10.10
2023-01-26T05:44:40.885Z,8.32
2023-01-26T05:49:45.858Z,8.85
2023-01-26T05:54:47.634Z,9.30
2023-01-26T05:59:48.950Z,8.98
2023-01-26T06:04:50.259Z,7.25
2023-01-26T06:09:52.411Z,7.45
2023-01-26T06:14:53.757Z,8.10
2023-01-26T06:19:55.158Z,8.90
2023-01-26T06:24:56.524Z,9.02
2023-01-26T06:29:57.861Z,7.30
2023-01-26T06:34:59.189Z,8.10
2023-01-26T06:40:00.626Z,7.07
2023-01-26T06:45:02.044Z,7.35
2023-01-26T06:50:03.671Z,5.93
2023-01-26T06:55:05.210Z,7.32
2023-01-26T07:00:07.319Z,7.35
2023-01-26T07:05:10.246Z,8.20
2023-01-26T07:10:12.929Z,10.23
2023-01-26T07:15:14.402Z,5.03
2023-01-26T07:20:15.941Z,6.70
2023-01-26T07:25:17.949Z,6.95
2023-01-26T07:30:19.355Z,7.75
2023-01-26T07:35:20.677Z,6.15
2023-01-26T07:40:21.995Z,7.30
2023-01-26T07:45:23.302Z,8.35
2023-01-26T07:50:25.765Z,11.70
2023-01-26T07:55:27.219Z,9.43
2023-01-26T08:00:28.566Z,7.95
2023-01-26T08:05:31.558Z,5.65
2023-01-26T08:10:33.006Z,9.60
2023-01-26T08:15:34.353Z,7.95
2023-01-26T08:20:35.741Z,6.53
2023-01-26T08:25:37.086Z,6.10
2023-01-26T08:30:38.611Z,9.68
2023-01-26T08:35:39.922Z,9.23
2023-01-26T08:40:41.246Z,7.18
2023-01-26T08:45:42.573Z,9.52
2023-01-26T08:50:44.518Z,9.30
2023-01-26T08:55:45.915Z,11.45
2023-01-26T09:00:47.595Z,11.93
2023-01-26T09:05:49.041Z,10.30
2023-01-26T09:10:50.399Z,9.02
2023-01-26T09:15:52.387Z,9.10
2023-01-26T09:20:55.697Z,9.25
2023-01-26T09:25:57.022Z,9.88
2023-01-26T09:31:04.827Z,11.43
2023-01-26T09:36:08.995Z,9.15
2023-01-26T09:41:10.646Z,10.82
2023-01-26T09:46:25.160Z,12.75
2023-01-26T09:51:31.293Z,12.93
2023-01-26T09:56:34.015Z,9.25
2023-01-26T10:01:43.282Z,12.40
2023-01-26T10:06:45.998Z,8.32
2023-01-26T10:11:53.026Z,10.45
2023-01-26T10:16:54.367Z,11.40
2023-01-26T10:21:59.614Z,12.52
2023-01-26T10:27:01.108Z,10.82
2023-01-26T10:32:03.534Z,10.38
2023-01-26T10:37:20.757Z,10.73
2023-01-26T10:42:22.421Z,10.03
2023-01-26T10:47:24.494Z,8.18
2023-01-26T10:52:25.916Z,8.55
2023-01-26T10:57:29.700Z,8.45
2023-01-26T11:02:31.888Z,8.55
2023-01-26T11:07:37.926Z,9.00
2023-01-26T11:12:39.543Z,9.18
2023-01-26T11:17:51.166Z,10.70
2023-01-26T11:23:18.224Z,6.88
2023-01-26T11:28:28.627Z,8.43
2023-01-26T11:33:46.243Z,8.60
2023-01-26T11:39:01.938Z,10.23
2023-01-26T11:44:28.863Z,10.70
2023-01-26T11:49:48.400Z,11.40
2023-01-26T11:55:24.015Z,13.93
2023-01-26T12:00:38.021Z,12.35
2023-01-26T12:05:46.270Z,9.85
2023-01-26T12:10:59.389Z,13.38
2023-01-26T12:16:13.545Z,11.77
2023-01-26T12:21:15.143Z,13.48
2023-01-26T12:26:20.585Z,13.40
2023-01-26T12:31:41.671Z,16.40
2023-01-26T12:37:04.498Z,12.18
2023-01-26T12:42:40.861Z,13.77
2023-01-26T12:48:14.604Z,14.13
2023-01-26T12:53:22.027Z,15.85
2023-01-26T12:58:29.798Z,16.35
2023-01-26T13:03:35.404Z,17.58
2023-01-26T13:08:36.953Z,20.27
2023-01-26T13:13:58.785Z,17.98
2023-01-26T13:19:02.636Z,19.17
2023-01-26T13:24:16.295Z,20.00
2023-01-26T13:29:32.878Z,21.80
2023-01-26T13:34:44.911Z,20.65
2023-01-26T13:39:54.655Z,16.77
2023-01-26T13:45:04.291Z,19.65
2023-01-26T13:50:32.167Z,25.88
2023-01-26T13:55:34.201Z,19.98
2023-01-26T14:00:35.646Z,20.42
2023-01-26T14:05:37.150Z,21.92
2023-01-26T14:10:43.232Z,21.27
2023-01-26T14:15:56.406Z,19.40
2023-01-26T14:21:04.939Z,24.17
2023-01-26T14:26:20.803Z,22.70
2023-01-26T14:31:26.691Z,27.80
2023-01-26T14:36:33.137Z,22.85
2023-01-26T14:41:37.769Z,21.15
2023-01-26T14:47:12.356Z,20.30
2023-01-26T14:52:27.137Z,20.17
2023-01-26T14:57:30.949Z,26.15
2023-01-26T15:02:38.408Z,20.90
2023-01-26T15:07:48.301Z,23.27
2023-01-26T15:12:58.023Z,22.42
2023-01-26T15:18:03.993Z,27.33
2023-01-26T15:23:26.796Z,23.55
2023-01-26T15:28:28.281Z,24.88
2023-01-26T15:33:40.081Z,27.23
2023-01-26T15:38:41.548Z,24.50
2023-01-26T15:43:43.335Z,28.38
2023-01-26T15:48:44.804Z,28.27
2023-01-26T15:53:46.446Z,24.90
2023-01-26T15:58:47.989Z,25.95
2023-01-26T16:03:50.702Z,29.90
2023-01-26T16:08:53.543Z,28.63
2023-01-26T16:14:03.126Z,26.52
2023-01-26T16:19:04.791Z,32.10
2023-01-26T16:24:06.444Z,35.05
2023-01-26T16:29:07.832Z,27.73
2023-01-26T16:34:10.099Z,27.00
2023-01-26T16:39:11.532Z,36.50
2023-01-26T16:44:15.707Z,29.13
2023-01-26T16:49:17.393Z,32.58
2023-01-26T16:54:18.792Z,28.30
2023-01-26T16:59:20.159Z,29.83
2023-01-26T17:04:21.488Z,29.67
2023-01-26T17:09:23.787Z,33.75
2023-01-26T17:14:25.261Z,37.72
2023-01-26T17:19:27.076Z,28.25
2023-01-26T17:24:28.409Z,35.05
2023-01-26T17:29:29.853Z,32.03
2023-01-26T17:34:31.172Z,34.25
2023-01-26T17:39:32.545Z,27.95
2023-01-26T17:44:34.144Z,35.28
2023-01-26T17:49:36.754Z,34.05
2023-01-26T17:54:38.140Z,32.13
2023-01-26T17:59:39.470Z,33.55
2023-01-26T18:04:40.837Z,33.30
2023-01-26T18:09:42.161Z,33.80
2023-01-26T18:14:44.756Z,35.30
2023-01-26T18:19:46.134Z,36.45
2023-01-26T18:24:48.113Z,35.50
2023-01-26T18:29:49.451Z,34.15
2023-01-26T18:34:50.757Z,38.90
2023-01-26T18:39:52.105Z,39.75
2023-01-26T18:45:00.664Z,41.80
2023-01-26T18:50:02.588Z,31.40
2023-01-26T18:55:04.209Z,38.65
2023-01-26T19:00:08.171Z,37.58
2023-01-26T19:05:10.050Z,41.05
2023-01-26T19:10:11.589Z,39.75
2023-01-26T19:15:13.199Z,39.50
2023-01-26T19:20:14.830Z,37.53
2023-01-26T19:25:16.161Z,35.60
2023-01-26T19:30:17.987Z,36.03
2023-01-26T19:35:19.338Z,45.40
2023-01-26T19:40:20.685Z,42.55
2023-01-26T19:45:22.015Z,41.42
2023-01-26T19:50:23.359Z,41.13
2023-01-26T19:55:24.721Z,35.85
2023-01-26T20:00:26.180Z,44.13
2023-01-26T20:05:27.567Z,43.97
2023-01-26T20:10:30.885Z,43.78
2023-01-26T20:15:35.361Z,43.85
2023-01-26T20:20:37.069Z,33.05
2023-01-26T20:25:38.559Z,36.75
2023-01-26T20:30:40.960Z,39.05
2023-01-26T20:35:43.464Z,40.72
2023-01-26T20:40:44.808Z,37.20
2023-01-26T20:45:46.189Z,47.78
2023-01-26T20:50:47.549Z,47.20
2023-01-26T20:55:48.897Z,47.05
2023-01-26T21:00:50.257Z,38.60
2023-01-26T21:05:51.615Z,37.72
2023-01-26T21:10:53.177Z,33.58
2023-01-26T21:15:54.592Z,32.38
2023-01-26T21:21:04.343Z,29.08
2023-01-26T21:26:09.574Z,43.83
2023-01-26T21:31:13.881Z,43.97
2023-01-26T21:36:18.683Z,36.90
2023-01-26T21:41:44.102Z,43.00
2023-01-26T21:46:46.608Z,35.83
2023-01-26T21:52:06.613Z,33.55
2023-01-26T21:57:28.563Z,48.25
2023-01-26T22:02:29.972Z,41.75
2023-01-26T22:07:32.129Z,43.88
2023-01-26T22:12:33.519Z,36.10
2023-01-26T22:17:34.866Z,39.25
2023-01-26T22:22:36.261Z,36.75
2023-01-26T22:27:39.543Z,35.45
2023-01-26T22:32:42.594Z,32.58
2023-01-26T22:37:44.001Z,44.38
2023-01-26T22:42:45.303Z,35.50
2023-01-26T22:47:50.295Z,33.17
2023-01-26T22:52:51.627Z,37.58
2023-01-26T22:57:53.013Z,32.55
2023-01-26T23:02:54.370Z,31.70
2023-01-26T23:07:56.050Z,30.95
2023-01-26T23:12:58.027Z,34.97
2023-01-26T23:17:59.384Z,33.92
2023-01-26T23:23:00.704Z,33.30
2023-01-26T23:28:03.403Z,35.45
2023-01-26T23:33:04.729Z,34.45
2023-01-26T23:38:06.065Z,33.63
2023-01-26T23:43:16.444Z,33.25
2023-01-26T23:48:19.791Z,41.70
2023-01-26T23:53:21.174Z,33.20
2023-01-26T23:58:22.751Z,33.50
